Time;durP1;ratioP1;P1;durP2;ratioP2;P2;SDS_P1;SDS_P2;PMS_P1;PMS_P2;Temp;Humidity;BMP_temperature;BMP_pressure;BME280_temperature;BME280_humidity;BME280_pressure;Samples;Min_cycle;Max_cycle;Signal;HPM_P1;HPM_P2
2022/01/19 00:01:35;;;;;;;5.30;3.47;;;;;;;2.09;71.44;100861.34;5110658;28;20204;-55
2022/01/19 00:04:02;;;;;;;6.47;3.70;;;;;;;2.16;71.34;100856.41;5110573;28;20201;-54
2022/01/19 00:06:29;;;;;;;5.27;3.50;;;;;;;2.01;71.53;100863.69;5110470;28;20634;-54
2022/01/19 00:08:56;;;;;;;6.20;4.13;;;;;;;1.99;72.10;100870.47;5110337;28;20197;-54
2022/01/19 00:11:23;;;;;;;6.40;3.93;;;;;;;2.05;71.67;100877.44;5110461;28;20234;-54
2022/01/19 00:13:50;;;;;;;7.30;3.63;;;;;;;2.07;71.76;100884.34;5110194;28;20310;-54
2022/01/19 00:16:18;;;;;;;7.40;3.60;;;;;;;1.82;72.42;100881.91;5110402;28;20191;-53
2022/01/19 00:18:47;;;;;;;8.43;3.70;;;;;;;1.76;72.46;100869.81;5110297;28;20191;-54
2022/01/19 00:21:14;;;;;;;12.07;4.23;;;;;;;1.95;72.21;100884.00;5110229;28;20194;-54
2022/01/19 00:23:41;;;;;;;4.37;2.73;;;;;;;2.06;72.02;100887.72;5111715;28;20192;-56
2022/01/19 00:26:08;;;;;;;5.27;3.40;;;;;;;2.06;72.12;100887.72;5114378;28;20196;-55
2022/01/19 00:28:35;;;;;;;7.60;3.57;;;;;;;1.89;72.39;100878.72;5114293;28;20195;-55
2022/01/19 00:31:02;;;;;;;7.77;3.63;;;;;;;1.84;73.10;100875.16;5114142;28;20289;-58
2022/01/19 00:33:29;;;;;;;3.93;3.33;;;;;;;1.93;72.56;100887.34;5113825;28;20336;-58
2022/01/19 00:35:57;;;;;;;5.40;3.60;;;;;;;1.95;72.81;100889.13;5114036;28;20267;-58
2022/01/19 00:38:24;;;;;;;5.57;3.60;;;;;;;1.76;74.18;100895.44;5113889;28;20200;-59
2022/01/19 00:40:52;;;;;;;8.90;3.77;;;;;;;1.77;73.70;100894.59;5114081;28;20238;-58
2022/01/19 00:43:18;;;;;;;5.33;3.50;;;;;;;1.80;74.20;100896.38;5114060;28;20273;-58
2022/01/19 00:45:45;;;;;;;6.20;3.80;;;;;;;1.69;73.92;100874.75;5113960;28;20281;-58
2022/01/19 00:48:12;;;;;;;4.83;3.70;;;;;;;1.80;74.26;100915.19;5113680;28;20197;-58
2022/01/19 00:50:39;;;;;;;5.70;3.70;;;;;;;1.73;73.28;100879.97;5113882;28;20202;-60
2022/01/19 00:53:08;;;;;;;7.60;4.00;;;;;;;1.73;74.29;100889.34;5113617;28;20555;-55
2022/01/19 00:55:35;;;;;;;6.63;3.57;;;;;;;1.61;74.61;100881.31;5113723;28;20198;-54
2022/01/19 00:58:02;;;;;;;10.43;4.17;;;;;;;1.76;74.31;100899.66;5113653;28;20208;-54
2022/01/19 01:00:29;;;;;;;4.83;3.60;;;;;;;1.72;73.86;100880.78;5113603;28;20277;-55
2022/01/19 01:02:56;;;;;;;4.73;3.30;;;;;;;1.83;74.48;100893.88;5113721;28;20191;-54
2022/01/19 01:05:23;;;;;;;4.00;3.13;;;;;;;1.67;74.06;100907.09;5113453;28;20202;-55
2022/01/19 01:07:51;;;;;;;4.57;3.27;;;;;;;1.58;74.80;100902.53;5113547;28;20670;-55
2022/01/19 01:10:21;;;;;;;5.47;3.43;;;;;;;1.67;74.25;100907.09;5113476;28;20301;-55
2022/01/19 01:12:50;;;;;;;4.23;3.57;;;;;;;1.72;74.28;100911.50;5112862;28;20230;-55
2022/01/19 01:15:26;;;;;;;6.57;3.83;;;;;;;1.67;74.66;100905.41;5113208;28;20248;-54
2022/01/19 01:20:40;;;;;;;5.30;3.03;;;;;;;1.64;73.99;100924.91;5113460;28;20196;-55
2022/01/19 01:23:09;;;;;;;5.60;3.10;;;;;;;1.54;74.04;100925.47;5112973;28;20201;-54
2022/01/19 01:25:37;;;;;;;7.60;3.20;;;;;;;1.39;72.80;100897.72;5112973;28;20191;-54
2022/01/19 01:28:06;;;;;;;3.53;2.80;;;;;;;1.68;72.81;100924.19;5112970;28;20190;-55
2022/01/19 01:30:33;;;;;;;3.87;3.00;;;;;;;1.64;72.13;100927.47;5113095;28;20615;-55
2022/01/19 01:33:00;;;;;;;5.83;3.20;;;;;;;1.67;72.42;100918.19;5112716;28;20314;-55
2022/01/19 01:35:27;;;;;;;3.43;2.77;;;;;;;1.66;71.99;100915.59;5111966;28;20190;-55
2022/01/19 01:37:54;;;;;;;6.07;3.17;;;;;;;1.65;72.44;100918.97;5112838;28;20198;-55
2022/01/19 01:40:24;;;;;;;3.20;2.73;;;;;;;1.78;72.20;100910.84;5112813;28;20221;-55
2022/01/19 01:42:53;;;;;;;5.37;3.20;;;;;;;1.77;71.80;100914.22;5112577;28;20248;-55
2022/01/19 01:45:26;;;;;;;4.80;2.80;;;;;;;1.71;72.15;100896.09;5112899;28;20729;-55
2022/01/19 01:48:02;;;;;;;5.10;3.00;;;;;;;1.75;72.86;100898.81;5112732;28;20226;-54
2022/01/19 01:53:28;;;;;;;4.73;3.30;;;;;;;1.75;72.21;100897.94;5112594;28;20221;-55
2022/01/19 01:56:02;;;;;;;5.90;3.63;;;;;;;1.54;72.52;100853.81;5112723;28;20207;-55
2022/01/19 01:58:32;;;;;;;5.43;3.27;;;;;;;1.71;72.50;100884.16;5112276;28;20191;-55
2022/01/19 02:01:00;;;;;;;6.30;3.53;;;;;;;1.62;73.23;100883.03;5112515;28;20201;-55
2022/01/19 02:03:28;;;;;;;4.33;3.17;;;;;;;1.59;72.68;100900.84;5112365;28;20289;-54
2022/01/19 02:06:25;;;;;;;5.37;3.07;;;;;;;1.57;73.85;100887.19;5112539;28;20204;-54
2022/01/19 02:08:58;;;;;;;3.70;3.40;;;;;;;1.42;73.99;100877.34;5112398;28;20623;-55
2022/01/19 02:15:47;;;;;;;9.50;3.50;;;;;;;1.38;73.76;100878.06;5112007;28;20411;-55
2022/01/19 02:22:54;;;;;;;5.23;3.77;;;;;;;1.20;75.47;100864.75;5112038;28;20195;-58
2022/01/19 02:25:26;;;;;;;7.47;4.37;;;;;;;1.14;76.29;100856.88;5111801;28;20582;-58
2022/01/19 02:31:14;;;;;;;5.10;3.67;;;;;;;1.12;77.24;100856.84;5111911;28;20204;-58
2022/01/19 02:36:37;;;;;;;6.57;3.97;;;;;;;0.97;76.86;100851.25;5111866;28;20248;-54
2022/01/19 02:41:49;;;;;;;5.23;3.67;;;;;;;0.85;77.26;100853.41;5111684;28;20202;-54
2022/01/19 02:44:30;;;;;;;8.90;4.10;;;;;;;0.91;76.75;100858.72;5111275;28;20285;-54
2022/01/19 02:49:38;;;;;;;4.90;3.67;;;;;;;1.00;76.00;100874.34;5111362;28;20198;-58
2022/01/19 02:52:06;;;;;;;6.03;3.67;;;;;;;0.95;76.78;100876.75;5111396;28;20193;-58
2022/01/19 02:54:34;;;;;;;8.57;4.07;;;;;;;0.95;76.09;100876.75;5111133;28;20227;-58
2022/01/19 02:57:02;;;;;;;3.97;3.53;;;;;;;1.08;76.57;100870.34;5111396;28;20260;-58
2022/01/19 02:59:40;;;;;;;8.00;3.90;;;;;;;0.98;76.14;100876.88;5111190;28;20200;-58
2022/01/19 03:10:30;;;;;;;4.43;2.97;;;;;;;0.87;75.34;100869.69;5111311;28;20194;-54
2022/01/19 03:12:57;;;;;;;5.07;2.93;;;;;;;1.01;74.98;100881.22;5110762;28;20234;-54
2022/01/19 03:15:26;;;;;;;4.53;3.20;;;;;;;1.11;73.99;100882.38;5110951;27;20271;-54
2022/01/19 03:17:57;;;;;;;6.93;3.50;;;;;;;1.06;74.73;100874.53;5111056;28;20284;-54
2022/01/19 03:20:25;;;;;;;5.60;3.30;;;;;;;1.04;73.80;100871.94;5110895;28;20190;-55
2022/01/19 03:23:01;;;;;;;4.53;2.77;;;;;;;1.15;73.53;100874.81;5110761;28;20206;-55
2022/01/19 03:25:29;;;;;;;5.10;3.37;;;;;;;1.17;74.65;100879.97;5110831;28;20204;-54
2022/01/19 03:27:56;;;;;;;8.30;3.47;;;;;;;1.09;74.82;100878.06;5110900;28;20238;-55
2022/01/19 03:30:24;;;;;;;8.77;3.17;;;;;;;1.04;74.37;100881.28;5110807;28;20503;-55
2022/01/19 03:32:51;;;;;;;4.87;3.53;;;;;;;1.03;74.84;100880.41;5110769;28;20600;-54
2022/01/19 03:35:18;;;;;;;6.33;3.33;;;;;;;1.00;75.26;100879.47;5111006;28;20309;-55
2022/01/19 03:37:44;;;;;;;5.87;2.93;;;;;;;0.94;75.18;100884.38;5110720;28;20245;-55
2022/01/19 03:40:14;;;;;;;7.33;3.10;;;;;;;0.86;75.83;100865.38;5110649;28;20198;-55
2022/01/19 03:42:41;;;;;;;4.57;3.30;;;;;;;1.03;75.37;100884.66;5110694;28;20211;-55
2022/01/19 03:45:10;;;;;;;4.50;3.13;;;;;;;0.84;75.11;100887.47;5110291;28;20695;-55
2022/01/19 03:47:41;;;;;;;6.43;3.53;;;;;;;0.85;75.48;100878.97;5110684;28;20639;-55
2022/01/19 03:50:10;;;;;;;5.60;2.80;;;;;;;0.86;75.53;100890.94;5110679;28;20241;-55
2022/01/19 03:52:37;;;;;;;6.23;3.07;;;;;;;0.99;75.47;100893.06;5110682;28;20205;-54
2022/01/19 03:55:05;;;;;;;7.30;3.40;;;;;;;1.01;74.84;100888.88;5110313;28;20222;-53
2022/01/19 03:57:33;;;;;;;7.53;4.00;;;;;;;0.90;75.25;100888.53;5110599;28;20243;-54
2022/01/19 04:00:00;;;;;;;5.40;3.30;;;;;;;0.96;75.11;100885.28;5114564;28;20206;-54
2022/01/19 04:02:27;;;;;;;6.07;3.40;;;;;;;0.97;74.41;100879.38;5094341;28;20761;-54
2022/01/19 04:04:59;;;;;;;7.37;3.43;;;;;;;0.91;74.71;100886.81;5093697;28;20282;-53
2022/01/19 04:07:26;;;;;;;8.60;3.80;;;;;;;0.82;74.93;100894.22;5093794;28;20247;-53
2022/01/19 04:09:53;;;;;;;4.87;3.00;;;;;;;0.81;75.01;100897.56;5093400;28;20197;-53
2022/01/19 04:12:41;;;;;;;4.60;3.30;;;;;;;0.85;73.68;100884.97;5092808;28;20262;-57
2022/01/19 04:15:09;;;;;;;5.40;3.17;;;;;;;0.88;73.25;100889.31;5089930;28;20218;-57
2022/01/19 04:17:40;;;;;;;6.50;3.43;;;;;;;0.86;73.12;100896.91;5092975;28;20283;-57
2022/01/19 04:20:08;;;;;;;4.57;2.63;;;;;;;0.94;72.99;100889.50;5088351;28;20202;-58
2022/01/19 04:22:36;;;;;;;6.20;3.00;;;;;;;1.00;73.06;100900.78;5091653;28;20191;-58
2022/01/19 04:25:03;;;;;;;6.43;3.20;;;;;;;0.72;73.63;100906.69;5088822;28;20244;-58
2022/01/19 04:27:33;;;;;;;3.60;2.67;;;;;;;0.84;74.32;100896.00;5089762;28;20651;-58
2022/01/19 04:30:07;;;;;;;5.70;2.67;;;;;;;0.89;73.34;100902.13;5084938;28;20686;-58
2022/01/19 04:32:42;;;;;;;4.30;3.40;;;;;;;0.93;73.20;100908.19;5091423;28;20735;-55
2022/01/19 04:35:11;;;;;;;6.57;2.93;;;;;;;0.97;73.17;100899.81;5088860;28;20222;-55
2022/01/19 04:37:51;;;;;;;6.73;3.37;;;;;;;0.92;73.29;100903.91;5092278;28;20284;-54
2022/01/19 04:54:30;;;;;;;5.80;3.40;;;;;;;1.07;72.82;100922.28;5090186;28;20309;-54
2022/01/19 05:05:23;;;;;;;5.40;3.40;;;;;;;1.13;73.41;100919.91;5090521;28;20232;-53
2022/01/19 05:07:58;;;;;;;4.00;2.83;;;;;;;1.20;72.79;100923.56;5091370;28;20708;-53
2022/01/19 05:13:28;;;;;;;4.90;3.50;;;;;;;1.16;73.01;100932.81;5092267;28;20605;-53
2022/01/19 05:15:55;;;;;;;8.30;3.23;;;;;;;1.26;73.43;100934.84;5092743;28;20281;-52
2022/01/19 05:18:23;;;;;;;6.07;4.00;;;;;;;1.26;73.31;100937.38;5092887;28;20195;-53
2022/01/19 05:20:51;;;;;;;4.10;3.00;;;;;;;1.21;73.41;100941.50;5090688;28;20202;-58
2022/01/19 05:23:18;;;;;;;4.77;2.90;;;;;;;1.14;73.94;100959.16;5089714;28;20209;-52
2022/01/19 05:25:45;;;;;;;8.40;4.00;;;;;;;1.18;74.37;100964.41;5084207;28;20290;-54
2022/01/19 05:28:13;;;;;;;6.00;3.33;;;;;;;1.20;74.42;100972.16;5071656;28;20194;-58
2022/01/19 05:30:40;;;;;;;10.77;4.03;;;;;;;1.16;75.09;100963.50;5072322;28;20230;-54
2022/01/19 05:33:07;;;;;;;7.17;4.17;;;;;;;0.98;74.68;100968.91;5071620;28;20216;-58
2022/01/19 05:35:34;;;;;;;4.00;3.47;;;;;;;0.66;75.09;100934.59;5088726;28;20245;-58
2022/01/19 05:38:03;;;;;;;6.60;3.93;;;;;;;0.87;74.78;100977.03;5091262;28;20227;-58
2022/01/19 05:40:30;;;;;;;6.23;4.70;;;;;;;0.78;75.09;100989.50;5091873;28;20230;-59
2022/01/19 05:42:57;;;;;;;7.93;4.60;;;;;;;0.79;74.46;100993.81;5086919;28;20679;-59
2022/01/19 05:45:25;;;;;;;7.73;4.60;;;;;;;0.67;74.42;100977.22;5072031;28;20758;-58
2022/01/19 05:47:52;;;;;;;7.00;3.50;;;;;;;0.85;74.10;100999.09;5088211;28;20219;-57
2022/01/19 05:50:19;;;;;;;4.97;3.87;;;;;;;0.96;74.23;100995.22;5091642;28;20222;-58
2022/01/19 05:52:46;;;;;;;6.83;3.87;;;;;;;1.00;74.23;101004.75;5091077;28;20230;-57
2022/01/19 05:55:14;;;;;;;5.93;3.73;;;;;;;1.03;73.67;101004.81;5090680;28;20241;-58
2022/01/19 05:57:41;;;;;;;5.67;3.47;;;;;;;1.09;73.93;101013.59;5090668;28;20605;-57
2022/01/19 06:00:10;;;;;;;6.43;3.90;;;;;;;1.08;73.39;101009.28;5090624;28;20220;-57
2022/01/19 06:02:37;;;;;;;5.77;3.77;;;;;;;1.06;74.44;101012.59;5090773;28;20711;-58
2022/01/19 06:05:04;;;;;;;6.20;3.60;;;;;;;1.03;74.13;101005.69;5090702;28;20230;-59
2022/01/19 06:07:39;;;;;;;5.73;3.90;;;;;;;1.15;74.08;101020.56;5089504;28;20229;-58
2022/01/19 06:10:09;;;;;;;9.40;4.10;;;;;;;1.19;73.97;101024.13;5091354;28;20558;-59
2022/01/19 06:12:38;;;;;;;8.23;4.43;;;;;;;1.19;73.79;101029.22;5091506;28;20237;-59
2022/01/19 06:15:07;;;;;;;5.13;3.67;;;;;;;1.16;73.72;101027.44;5090385;28;20746;-59
2022/01/19 06:17:34;;;;;;;7.93;4.53;;;;;;;1.22;74.00;101027.66;5090508;28;20221;-59
2022/01/19 06:20:01;;;;;;;8.50;4.77;;;;;;;1.31;74.17;101039.88;5090193;28;20202;-59
2022/01/19 06:22:28;;;;;;;11.27;5.63;;;;;;;1.27;73.96;101038.88;5089872;28;20195;-58
2022/01/19 06:24:57;;;;;;;8.00;5.00;;;;;;;1.33;73.89;101033.13;5091250;28;20206;-58
2022/01/19 06:27:24;;;;;;;11.13;5.53;;;;;;;1.43;74.64;101036.03;5091278;28;20192;-58
2022/01/19 06:29:52;;;;;;;9.23;5.93;;;;;;;1.41;74.35;101036.78;5080910;28;20222;-57
2022/01/19 06:32:19;;;;;;;14.03;6.20;;;;;;;1.42;73.68;101038.53;5090410;28;20309;-56
2022/01/19 06:34:46;;;;;;;12.07;6.50;;;;;;;1.42;72.88;101034.28;5089204;28;20241;-54
2022/01/19 06:37:13;;;;;;;20.53;7.00;;;;;;;1.41;72.42;101040.22;5084846;28;20302;-53
2022/01/19 06:39:40;;;;;;;11.57;5.77;;;;;;;1.50;71.60;101039.63;5087835;28;20762;-53
2022/01/19 06:42:07;;;;;;;9.67;5.40;;;;;;;1.63;71.30;101053.69;5088602;28;20221;-53
2022/01/19 06:44:34;;;;;;;7.37;4.33;;;;;;;1.76;70.71;101050.69;5088977;28;20207;-52
2022/01/19 06:47:03;;;;;;;8.53;5.07;;;;;;;1.67;71.87;101060.66;5089230;28;20227;-54
2022/01/19 06:49:30;;;;;;;9.97;4.73;;;;;;;1.81;70.90;101060.25;5086870;28;20908;-54
2022/01/19 06:51:57;;;;;;;9.37;4.97;;;;;;;1.97;69.93;101060.72;5086633;28;20246;-54
2022/01/19 06:54:24;;;;;;;6.70;4.63;;;;;;;1.96;70.28;101048.75;5089481;28;20229;-54
2022/01/19 06:56:51;;;;;;;6.57;4.50;;;;;;;1.94;69.93;101051.25;5088015;28;20215;-53
2022/01/19 06:59:18;;;;;;;5.30;4.63;;;;;;;1.92;69.67;101062.28;5086471;28;20214;-55
2022/01/19 07:01:45;;;;;;;5.63;4.87;;;;;;;2.01;70.15;101054.88;5089210;28;20242;-54
2022/01/19 07:04:15;;;;;;;14.20;4.57;;;;;;;2.02;70.28;101049.81;5089059;28;20222;-54
2022/01/19 07:06:43;;;;;;;8.53;4.80;;;;;;;2.09;70.18;101050.84;5088867;28;20611;-54
2022/01/19 07:09:10;;;;;;;7.23;4.80;;;;;;;1.97;69.71;101048.78;5083576;28;21074;-55
2022/01/19 07:11:37;;;;;;;8.40;5.37;;;;;;;2.09;70.28;101050.84;5086540;28;20234;-55
2022/01/19 07:14:04;;;;;;;8.67;5.33;;;;;;;2.11;70.46;101047.53;5088596;28;20714;-55
2022/01/19 07:16:31;;;;;;;9.17;4.97;;;;;;;2.12;70.81;101044.16;5088925;28;20219;-55
2022/01/19 07:18:58;;;;;;;11.87;5.73;;;;;;;2.16;70.91;101040.81;5085980;28;20221;-54
2022/01/19 07:21:26;;;;;;;10.53;5.73;;;;;;;2.32;70.85;101043.84;5089088;28;20214;-55
2022/01/19 07:23:53;;;;;;;13.47;5.60;;;;;;;2.38;70.70;101049.13;5088501;28;20315;-55
2022/01/19 07:26:20;;;;;;;9.83;5.83;;;;;;;2.37;71.10;101047.41;5089035;28;20710;-54
2022/01/19 07:28:47;;;;;;;9.30;5.37;;;;;;;2.47;70.37;101044.28;5083838;28;20225;-55
2022/01/19 07:31:14;;;;;;;10.23;5.93;;;;;;;2.52;70.19;101045.28;5090304;28;20214;-54
2022/01/19 07:33:41;;;;;;;11.80;6.07;;;;;;;2.62;70.44;101054.09;5089571;28;20587;-53
2022/01/19 07:36:08;;;;;;;10.10;5.63;;;;;;;2.61;70.70;101055.78;5086139;28;20306;-54
2022/01/19 07:38:36;;;;;;;7.60;5.50;;;;;;;2.68;70.85;101059.41;5086921;28;20222;-54
2022/01/19 07:41:04;;;;;;;12.20;5.80;;;;;;;2.75;70.30;101051.03;5086927;28;20271;-54
2022/01/19 07:43:30;;;;;;;7.30;5.57;;;;;;;2.76;70.62;101053.66;5088994;28;20643;-54
2022/01/19 07:45:57;;;;;;;15.13;6.50;;;;;;;2.75;70.35;101049.34;5089791;28;20200;-54
2022/01/19 07:48:24;;;;;;;9.70;4.93;;;;;;;2.86;69.85;101055.63;5090176;28;20199;-55
2022/01/19 07:50:52;;;;;;;8.17;5.13;;;;;;;2.87;69.43;101041.97;5089967;28;20211;-55
2022/01/19 07:53:18;;;;;;;9.77;4.90;;;;;;;2.95;68.71;101049.88;5090074;28;20674;-54
2022/01/19 07:55:49;;;;;;;11.77;5.13;;;;;;;2.97;68.11;101043.09;5089871;28;20306;-58
2022/01/19 07:58:16;;;;;;;8.23;5.60;;;;;;;3.08;67.71;101049.38;5090010;28;20280;-55
2022/01/19 08:00:43;;;;;;;6.50;5.20;;;;;;;2.99;67.53;101033.75;5089915;28;20200;-55
2022/01/19 08:03:10;;;;;;;8.33;5.13;;;;;;;3.07;67.65;101039.94;5089938;28;20693;-55
2022/01/19 08:05:37;;;;;;;11.00;6.07;;;;;;;3.01;67.61;101038.91;5089768;28;20208;-55
2022/01/19 08:08:05;;;;;;;9.83;6.67;;;;;;;3.00;67.99;101043.19;5089682;28;20200;-55
2022/01/19 08:10:32;;;;;;;11.80;6.07;;;;;;;3.18;67.07;101042.75;5090176;28;20642;-54
2022/01/19 08:13:03;;;;;;;9.43;5.03;;;;;;;3.18;67.00;101050.47;5089599;28;20236;-55
2022/01/19 08:15:31;;;;;;;12.30;6.23;;;;;;;3.15;67.11;101045.28;5089783;28;20225;-54
2022/01/19 08:17:58;;;;;;;11.40;7.80;;;;;;;3.28;67.13;101047.28;5089601;28;20229;-55
2022/01/19 08:20:25;;;;;;;11.93;6.27;;;;;;;3.37;66.38;101050.13;5089704;28;20208;-53
2022/01/19 08:22:52;;;;;;;8.77;5.83;;;;;;;3.31;66.24;101019.16;5089713;28;20204;-54
2022/01/19 08:25:19;;;;;;;9.70;6.53;;;;;;;3.40;67.02;101050.16;5089779;28;20659;-55
2022/01/19 08:27:46;;;;;;;11.87;6.00;;;;;;;3.49;66.30;101045.28;5086387;28;20219;-57
2022/01/19 08:30:15;;;;;;;7.90;5.57;;;;;;;3.54;66.07;101042.81;5089061;28;20228;-57
2022/01/19 08:32:43;;;;;;;10.60;5.80;;;;;;;3.49;66.21;101040.16;5089159;28;20219;-58
2022/01/19 08:35:11;;;;;;;9.47;5.60;;;;;;;3.50;66.59;101041.84;5088846;28;20612;-58
2022/01/19 08:37:38;;;;;;;8.67;5.87;;;;;;;3.68;66.14;101040.56;5089314;28;20225;-58
2022/01/19 08:40:08;;;;;;;9.13;5.53;;;;;;;3.77;65.48;101033.94;5087920;28;20234;-58
2022/01/19 08:42:36;;;;;;;10.23;5.30;;;;;;;3.57;65.80;101002.69;5089060;28;20659;-57
2022/01/19 08:45:07;;;;;;;9.23;4.93;;;;;;;3.68;66.02;101031.16;5087478;28;20231;-56
2022/01/19 08:47:37;;;;;;;7.73;5.47;;;;;;;3.71;66.23;101025.25;5072255;28;20224;-55
2022/01/19 08:50:04;;;;;;;13.70;5.77;;;;;;;3.88;65.45;101022.22;5089608;28;20229;-54
2022/01/19 08:52:31;;;;;;;13.30;5.50;;;;;;;3.91;65.88;101026.56;5092628;28;20207;-55
2022/01/19 08:54:58;;;;;;;10.63;6.20;;;;;;;3.90;66.09;101017.13;5092130;28;20226;-54
2022/01/19 08:57:25;;;;;;;17.10;6.33;;;;;;;3.98;65.72;101020.72;5092841;28;20203;-55
2022/01/19 08:59:53;;;;;;;8.23;5.77;;;;;;;4.01;65.39;101031.06;5092679;28;20212;-55
2022/01/19 09:02:20;;;;;;;14.47;7.10;;;;;;;3.94;65.89;101003.53;5092714;28;20282;-55
2022/01/19 09:04:49;;;;;;;23.17;9.23;;;;;;;4.12;66.38;101031.28;5092809;28;20714;-55
2022/01/19 09:07:17;;;;;;;19.50;9.97;;;;;;;4.30;65.40;101024.81;5092531;28;20203;-56
2022/01/19 09:09:44;;;;;;;19.13;6.53;;;;;;;4.27;65.65;101032.50;5092563;28;20195;-55
2022/01/19 09:12:12;;;;;;;9.47;6.13;;;;;;;4.22;65.49;101028.06;5092303;28;20330;-55
2022/01/19 09:14:39;;;;;;;27.63;9.17;;;;;;;4.28;65.26;101017.94;5092185;28;20278;-55
2022/01/19 09:17:08;;;;;;;14.17;6.73;;;;;;;4.45;64.46;101018.28;5092528;28;20206;-55
2022/01/19 09:19:37;;;;;;;13.40;5.70;;;;;;;4.50;64.52;101020.13;5092490;28;20191;-56
2022/01/19 09:22:06;;;;;;;12.17;5.37;;;;;;;4.46;63.79;101015.72;5092268;28;20202;-55
2022/01/19 09:24:35;;;;;;;8.80;5.07;;;;;;;4.58;63.06;101009.97;5092330;28;20194;-54
2022/01/19 09:27:02;;;;;;;23.90;8.00;;;;;;;4.63;63.69;101005.75;5086562;28;20222;-55
2022/01/19 09:29:29;;;;;;;10.17;6.70;;;;;;;4.56;64.03;100996.22;5071326;28;20311;-55
2022/01/19 09:31:57;;;;;;;14.77;7.60;;;;;;;4.70;63.52;100985.34;5071570;28;20215;-55
2022/01/19 09:34:24;;;;;;;11.23;6.60;;;;;;;4.75;63.08;100987.97;5071569;28;20379;-55
2022/01/19 09:36:51;;;;;;;10.80;5.37;;;;;;;4.80;62.56;100982.94;5085639;28;20725;-54
2022/01/19 09:39:23;;;;;;;19.83;6.23;;;;;;;4.83;62.13;100981.28;5092207;28;20236;-55
2022/01/19 09:41:50;;;;;;;14.57;4.87;;;;;;;4.79;61.93;100984.63;5092276;28;20199;-56
2022/01/19 09:44:18;;;;;;;20.73;5.73;;;;;;;4.80;62.11;100968.38;5091870;28;20245;-55
2022/01/19 09:46:45;;;;;;;12.37;6.80;;;;;;;4.87;61.97;100974.47;5091854;28;20195;-55
2022/01/19 09:49:12;;;;;;;10.80;7.33;;;;;;;4.87;62.06;100961.63;5091754;28;20237;-55
2022/01/19 09:51:41;;;;;;;6.20;4.87;;;;;;;4.92;61.58;100958.28;5091933;28;20635;-54
2022/01/19 09:54:08;;;;;;;6.83;5.60;;;;;;;4.89;62.08;100960.81;5073877;28;20229;-55
2022/01/19 09:56:36;;;;;;;9.00;4.57;;;;;;;4.89;61.32;100949.66;5069942;28;20452;-55
2022/01/19 09:59:04;;;;;;;11.33;5.63;;;;;;;4.89;61.38;100944.50;5074608;28;20245;-55
2022/01/19 10:01:31;;;;;;;45.13;10.27;;;;;;;4.90;61.36;100953.97;5091400;28;20191;-55
2022/01/19 10:03:57;;;;;;;6.97;4.60;;;;;;;4.87;61.17;100951.31;5091546;28;20195;-55
2022/01/19 10:06:25;;;;;;;9.17;5.17;;;;;;;4.85;61.12;100955.59;5091450;28;20383;-56
2022/01/19 10:08:54;;;;;;;9.77;5.27;;;;;;;4.89;61.17;100949.66;5091402;28;20572;-55
2022/01/19 10:11:29;;;;;;;14.17;5.43;;;;;;;4.89;61.24;100960.81;5091140;28;20238;-55
2022/01/19 10:17:01;;;;;;;9.77;4.20;;;;;;;4.80;60.71;100939.22;5048686;28;20224;-55
2022/01/19 10:19:31;;;;;;;5.80;3.77;;;;;;;4.88;60.30;100948.78;5082909;28;20201;-56
2022/01/19 10:22:10;;;;;;;11.00;4.10;;;;;;;4.96;59.96;100948.94;5091369;28;20586;-55
2022/01/19 10:24:50;;;;;;;7.50;4.80;;;;;;;4.90;60.13;100952.25;5091548;28;20202;-58
2022/01/19 10:27:42;;;;;;;6.40;4.03;;;;;;;4.86;60.89;100934.16;5091111;28;20191;-58
2022/01/19 10:30:28;;;;;;;6.80;3.97;;;;;;;4.94;60.53;100943.75;5091565;28;20686;-59
2022/01/19 10:32:59;;;;;;;7.00;3.30;;;;;;;4.95;59.70;100937.78;5091093;28;20290;-58
2022/01/19 10:35:29;;;;;;;5.00;3.87;;;;;;;4.89;60.30;100935.06;5090975;28;20230;-58
2022/01/19 10:38:17;;;;;;;4.80;4.00;;;;;;;4.94;59.11;100917.16;5091008;28;20199;-59
2022/01/19 10:41:02;;;;;;;6.33;4.33;;;;;;;4.99;59.16;100910.34;5091104;28;20204;-58
2022/01/19 10:43:34;;;;;;;8.63;4.10;;;;;;;5.05;59.86;100907.91;5091094;28;20206;-58
2022/01/19 10:46:23;;;;;;;5.70;4.10;;;;;;;5.11;60.02;100906.28;5090829;28;20194;-58
2022/01/19 10:48:58;;;;;;;14.23;5.27;;;;;;;5.17;59.24;100899.50;5090875;28;20199;-58
2022/01/19 10:51:30;;;;;;;9.23;4.63;;;;;;;5.31;58.53;100887.69;5090710;28;20201;-58
2022/01/19 10:54:15;;;;;;;13.40;4.80;;;;;;;5.36;57.86;100880.91;5090614;28;20264;-58
2022/01/19 10:56:45;;;;;;;6.73;4.07;;;;;;;5.33;58.18;100865.41;5090530;28;20221;-58
2022/01/19 10:59:14;;;;;;;5.90;4.50;;;;;;;5.33;58.21;100867.97;5090679;28;20195;-57
2022/01/19 11:01:46;;;;;;;4.33;3.83;;;;;;;5.46;57.19;100868.19;5090968;28;20221;-58
2022/01/19 11:04:23;;;;;;;8.67;4.00;;;;;;;5.47;57.88;100862.19;5089612;28;20674;-58
2022/01/19 11:06:51;;;;;;;7.10;4.00;;;;;;;5.21;57.82;100811.16;5086456;28;20198;-59
2022/01/19 11:09:23;;;;;;;8.03;4.10;;;;;;;5.39;57.64;100853.50;5088088;28;20227;-58
2022/01/19 11:11:50;;;;;;;5.80;3.93;;;;;;;5.52;57.26;100846.81;5084832;28;20223;-59
2022/01/19 11:14:17;;;;;;;7.73;4.57;;;;;;;5.56;57.85;100837.38;5089074;28;20188;-57
2022/01/19 11:16:47;;;;;;;7.33;4.03;;;;;;;5.54;57.21;100844.22;5088068;28;20301;-58
2022/01/19 11:19:15;;;;;;;9.27;4.70;;;;;;;5.53;56.77;100842.53;5088923;28;20199;-59
2022/01/19 11:21:52;;;;;;;10.67;4.20;;;;;;;5.58;57.21;100843.44;5087723;28;20195;-59
2022/01/19 11:24:31;;;;;;;8.07;4.17;;;;;;;5.59;56.26;100824.56;5090050;28;20230;-57
2022/01/19 11:26:59;;;;;;;9.67;4.27;;;;;;;5.58;56.74;100817.66;5090173;28;20195;-58
2022/01/19 11:29:28;;;;;;;4.20;3.83;;;;;;;5.64;56.09;100817.75;5090169;28;20686;-57
2022/01/19 11:31:58;;;;;;;3.63;3.00;;;;;;;5.70;55.73;100810.97;5090415;28;20332;-58
2022/01/19 11:34:39;;;;;;;5.57;3.80;;;;;;;5.63;56.34;100816.91;5089885;28;20191;-58
2022/01/19 11:37:06;;;;;;;6.37;3.70;;;;;;;5.63;56.01;100816.03;5089852;28;20268;-58
2022/01/19 11:39:33;;;;;;;5.30;4.10;;;;;;;5.67;55.66;100810.91;5089671;28;20200;-58
2022/01/19 11:42:01;;;;;;;4.27;3.87;;;;;;;5.65;55.80;100801.44;5089862;28;20276;-58
2022/01/19 11:44:40;;;;;;;6.30;4.67;;;;;;;5.66;56.24;100796.31;5090044;28;20670;-59
2022/01/19 11:47:22;;;;;;;14.90;5.10;;;;;;;5.65;55.98;100792.00;5089907;28;20286;-59
2022/01/19 11:49:54;;;;;;;6.27;3.97;;;;;;;5.70;56.73;100784.31;5090018;28;20290;-58
2022/01/19 11:52:24;;;;;;;5.07;3.93;;;;;;;5.72;56.00;100786.09;5090027;28;20601;-59
2022/01/19 11:54:52;;;;;;;7.73;4.43;;;;;;;5.66;56.19;100780.84;5090441;28;20723;-58
2022/01/19 11:57:22;;;;;;;6.33;4.13;;;;;;;5.65;56.04;100781.69;5089942;28;20233;-58
2022/01/19 12:00:12;;;;;;;6.27;3.80;;;;;;;5.71;55.71;100773.19;5090132;28;20731;-58
2022/01/19 12:02:43;;;;;;;6.73;4.20;;;;;;;5.72;55.61;100780.94;5089977;28;20201;-58
2022/01/19 12:05:30;;;;;;;9.07;4.47;;;;;;;5.60;56.11;100767.91;5090040;28;20195;-58
2022/01/19 12:07:59;;;;;;;8.47;4.03;;;;;;;5.65;55.71;100760.22;5090210;28;20187;-57
2022/01/19 12:10:46;;;;;;;10.80;4.33;;;;;;;5.73;55.90;100756.03;5089714;28;20191;-58
2022/01/19 12:13:28;;;;;;;21.17;5.23;;;;;;;5.85;55.91;100758.75;5089236;28;20605;-59
2022/01/19 12:16:00;;;;;;;10.73;4.73;;;;;;;5.94;55.88;100760.56;5089650;28;20726;-59
2022/01/19 12:18:45;;;;;;;7.83;4.30;;;;;;;5.98;54.87;100755.44;5089532;28;20195;-58
2022/01/19 12:21:14;;;;;;;7.73;4.40;;;;;;;5.96;55.22;100746.00;5074270;28;20668;-58
2022/01/19 12:23:42;;;;;;;10.27;5.27;;;;;;;5.87;55.26;100738.16;5073926;28;20196;-58
2022/01/19 12:26:10;;;;;;;12.53;6.03;;;;;;;5.90;55.32;100748.50;5073790;28;20203;-58
2022/01/19 12:28:48;;;;;;;11.80;6.47;;;;;;;6.01;54.41;100729.72;5073482;28;20205;-58
2022/01/19 12:31:36;;;;;;;9.60;6.90;;;;;;;5.98;54.89;100731.41;5092079;28;20195;-58
2022/01/19 12:34:23;;;;;;;10.30;5.87;;;;;;;6.00;54.87;100721.97;5090882;28;20231;-57
2022/01/19 12:36:53;;;;;;;9.10;5.63;;;;;;;6.11;54.40;100716.03;5092624;28;20642;-57
2022/01/19 12:39:44;;;;;;;9.80;5.10;;;;;;;6.14;58.43;100704.91;5092404;28;20594;-56
2022/01/19 12:42:14;;;;;;;5.53;4.80;;;;;;;6.15;54.52;100697.19;5091786;28;20225;-59
2022/01/19 12:44:45;;;;;;;6.50;4.77;;;;;;;6.18;54.49;100706.66;5091485;28;20294;-55
2022/01/19 12:47:50;;;;;;;9.87;5.60;;;;;;;6.26;53.15;100710.16;5089131;28;20634;-54